createdAt,value
2018-02-03T00:00:36.076Z,90.36
2018-02-03T00:01:35.936Z,89.98
2018-02-03T00:02:35.798Z,90.45
2018-02-03T00:03:35.663Z,91.11
2018-02-03T00:04:35.525Z,90.92
2018-02-03T00:05:35.387Z,91.20
2018-02-03T00:06:35.249Z,91.77
2018-02-03T00:07:35.109Z,91.86
2018-02-03T00:08:34.979Z,91.96
2018-02-03T00:09:34.836Z,92.62
2018-02-03T00:10:34.701Z,92.90
2018-02-03T00:11:34.560Z,93.09
2018-02-03T00:12:34.424Z,92.71
2018-02-03T00:13:34.284Z,90.73
2018-02-03T00:14:34.146Z,90.45
2018-02-03T00:15:34.008Z,91.20
2018-02-03T00:16:33.871Z,91.20
2018-02-03T00:17:33.736Z,90.83
2018-02-03T00:18:33.598Z,91.30
2018-02-03T00:19:33.458Z,92.05
2018-02-03T00:20:33.325Z,92.14
2018-02-03T00:21:33.187Z,91.77
2018-02-03T00:22:33.047Z,91.39
2018-02-03T00:23:32.909Z,90.83
2018-02-03T00:24:32.773Z,91.20
2018-02-03T00:25:32.635Z,91.49
2018-02-03T00:26:32.496Z,92.05
2018-02-03T00:27:32.362Z,91.58
2018-02-03T00:28:32.225Z,91.49
2018-02-03T00:29:32.082Z,90.92
2018-02-03T00:30:31.946Z,91.30
2018-02-03T00:31:31.809Z,91.86
2018-02-03T00:32:31.672Z,92.24
2018-02-03T00:33:31.534Z,92.05
2018-02-03T00:34:31.397Z,92.24
2018-02-03T00:35:31.258Z,92.80
2018-02-03T00:36:31.122Z,93.28
2018-02-03T00:37:30.989Z,91.96
2018-02-03T00:38:30.846Z,90.26
2018-02-03T00:39:30.710Z,88.85
2018-02-03T00:40:30.570Z,88.85
2018-02-03T00:41:30.434Z,88.95
2018-02-03T00:42:30.296Z,89.79
2018-02-03T00:43:30.158Z,90.36
2018-02-03T00:44:30.022Z,91.02
2018-02-03T00:45:29.884Z,91.39
2018-02-03T00:46:29.793Z,92.05
2018-02-03T00:47:29.608Z,92.80
2018-02-03T00:48:29.473Z,93.56
2018-02-03T00:49:29.335Z,94.13
2018-02-03T00:50:29.196Z,93.84
2018-02-03T00:51:29.058Z,94.41
2018-02-03T00:52:28.923Z,93.75
2018-02-03T00:53:28.784Z,92.14
2018-02-03T00:54:28.652Z,92.90
2018-02-03T00:55:28.508Z,92.99
2018-02-03T00:56:28.371Z,93.84
2018-02-03T00:57:28.234Z,93.94
2018-02-03T00:58:28.098Z,94.13
2018-02-03T00:59:27.958Z,94.79
2018-02-03T01:00:27.824Z,93.65
2018-02-03T01:01:27.682Z,92.14
2018-02-03T01:02:27.547Z,91.02
2018-02-03T01:03:27.412Z,90.92
2018-02-03T01:04:27.272Z,90.83
2018-02-03T01:05:27.136Z,91.67
2018-02-03T01:06:26.996Z,91.77
2018-02-03T01:07:26.863Z,91.86
2018-02-03T01:08:26.721Z,92.24
2018-02-03T01:09:26.587Z,91.02
2018-02-03T01:10:26.452Z,89.23
2018-02-03T01:11:26.310Z,88.10
2018-02-03T01:12:26.174Z,87.34
2018-02-03T01:13:26.035Z,87.44
2018-02-03T01:14:25.899Z,87.81
2018-02-03T01:15:25.761Z,90.26
2018-02-03T01:16:25.625Z,90.92
2018-02-03T01:17:25.489Z,91.77
2018-02-03T01:18:25.348Z,92.52
2018-02-03T01:19:25.213Z,92.99
2018-02-03T01:20:25.074Z,93.09
2018-02-03T01:21:24.936Z,93.84
2018-02-03T01:22:24.803Z,93.84
2018-02-03T01:23:24.662Z,93.09
2018-02-03T01:24:24.525Z,92.33
2018-02-03T01:25:24.388Z,91.11
2018-02-03T01:26:24.253Z,91.11
2018-02-03T01:27:24.111Z,90.64
2018-02-03T01:28:23.975Z,90.92
2018-02-03T01:29:23.838Z,91.39
2018-02-03T01:30:23.700Z,91.86
2018-02-03T01:31:23.561Z,92.62
2018-02-03T01:32:23.422Z,93.28
2018-02-03T01:33:23.288Z,94.22
2018-02-03T01:34:23.156Z,93.75
2018-02-03T01:35:23.013Z,93.65
2018-02-03T01:36:22.875Z,94.22
2018-02-03T01:37:22.739Z,94.03
2018-02-03T01:38:22.603Z,93.70
2018-02-03T01:39:22.464Z,93.32
2018-02-03T01:40:22.327Z,92.66
2018-02-03T01:41:22.190Z,92.57
2018-02-03T01:42:22.052Z,89.93
2018-02-03T01:43:21.917Z,88.52
2018-02-03T01:44:21.783Z,88.71
2018-02-03T01:45:21.641Z,88.04
2018-02-03T01:46:21.506Z,88.76
2018-02-03T01:47:21.366Z,87.81
2018-02-03T01:48:21.230Z,88.10
2018-02-03T01:49:21.094Z,88.38
2018-02-03T01:50:20.957Z,88.85
2018-02-03T01:51:20.825Z,90.31
2018-02-03T01:52:20.683Z,90.64
2018-02-03T01:53:20.544Z,88.66
2018-02-03T01:54:20.411Z,87.34
2018-02-03T01:55:20.272Z,87.25
2018-02-03T01:56:20.138Z,86.87
2018-02-03T01:57:19.998Z,87.44
2018-02-03T01:58:19.861Z,88.28
2018-02-03T01:59:19.724Z,88.28
2018-02-03T02:00:19.589Z,88.10
2018-02-03T02:01:19.450Z,88.00
2018-02-03T02:02:19.315Z,87.72
2018-02-03T02:03:19.175Z,87.91
2018-02-03T02:04:19.038Z,88.66
2018-02-03T02:05:18.901Z,89.04
2018-02-03T02:06:18.766Z,89.61
2018-02-03T02:07:18.625Z,90.17
2018-02-03T02:08:18.490Z,89.89
2018-02-03T02:09:18.351Z,90.26
2018-02-03T02:10:18.277Z,88.66
2018-02-03T02:11:18.078Z,87.34
2018-02-03T02:12:17.942Z,86.40
2018-02-03T02:13:17.802Z,85.74
2018-02-03T02:14:17.668Z,86.68
2018-02-03T02:15:17.527Z,87.53
2018-02-03T02:16:17.391Z,88.76
2018-02-03T02:17:17.252Z,89.32
2018-02-03T02:18:17.116Z,89.98
2018-02-03T02:19:16.982Z,90.83
2018-02-03T02:20:16.841Z,90.64
2018-02-03T02:21:16.701Z,91.58
2018-02-03T02:22:16.565Z,90.73
2018-02-03T02:23:16.427Z,90.26
2018-02-03T02:24:16.290Z,89.98
2018-02-03T02:25:16.150Z,89.98
2018-02-03T02:26:16.015Z,89.42
2018-02-03T02:27:15.877Z,89.79
2018-02-03T02:28:15.740Z,89.51
2018-02-03T02:29:15.602Z,88.19
2018-02-03T02:30:15.464Z,88.28
2018-02-03T02:31:15.328Z,87.91
2018-02-03T02:32:15.189Z,89.42
2018-02-03T02:33:15.056Z,90.08
2018-02-03T02:34:14.914Z,90.36
2018-02-03T02:35:14.776Z,90.36
2018-02-03T02:36:14.640Z,91.20
2018-02-03T02:37:14.500Z,90.78
2018-02-03T02:38:14.365Z,90.92
2018-02-03T02:39:14.226Z,89.42
2018-02-03T02:40:14.090Z,87.62
2018-02-03T02:41:13.954Z,87.06
2018-02-03T02:42:13.813Z,86.77
2018-02-03T02:43:13.678Z,86.77
2018-02-03T02:44:13.539Z,87.62
2018-02-03T02:45:13.399Z,88.38
2018-02-03T02:46:13.263Z,88.66
2018-02-03T02:47:13.128Z,89.70
2018-02-03T02:48:12.988Z,89.89
2018-02-03T02:49:12.852Z,90.08
2018-02-03T02:50:12.717Z,89.89
2018-02-03T02:51:12.574Z,89.70
2018-02-03T02:52:12.436Z,89.42
2018-02-03T02:53:12.299Z,89.42
2018-02-03T02:54:12.161Z,89.79
2018-02-03T02:55:12.028Z,90.36
2018-02-03T02:56:11.886Z,90.92
2018-02-03T02:57:11.749Z,91.30
2018-02-03T02:58:11.613Z,91.49
2018-02-03T02:59:11.474Z,92.05
2018-02-03T03:00:11.335Z,91.96
2018-02-03T03:01:11.238Z,90.36
2018-02-03T03:02:11.064Z,89.51
2018-02-03T03:03:10.922Z,89.89
2018-02-03T03:04:10.791Z,88.85
2018-02-03T03:05:10.650Z,88.04
2018-02-03T03:06:10.512Z,87.19
2018-02-03T03:07:10.376Z,88.33
2018-02-03T03:08:10.235Z,89.93
2018-02-03T03:09:10.098Z,91.30
2018-02-03T03:10:09.964Z,90.83
2018-02-03T03:11:09.824Z,90.45
2018-02-03T03:12:09.687Z,88.85
2018-02-03T03:13:09.552Z,88.10
2018-02-03T03:14:09.413Z,87.81
2018-02-03T03:15:09.273Z,87.62
2018-02-03T03:16:09.138Z,87.91
2018-02-03T03:17:09.002Z,88.85
2018-02-03T03:18:08.862Z,89.61
2018-02-03T03:19:08.728Z,89.98
2018-02-03T03:20:08.589Z,90.45
2018-02-03T03:21:08.456Z,89.08
2018-02-03T03:22:08.313Z,89.37
2018-02-03T03:23:08.176Z,89.18
2018-02-03T03:24:08.040Z,88.33
2018-02-03T03:25:07.905Z,88.61
2018-02-03T03:26:07.765Z,88.28
2018-02-03T03:27:07.630Z,87.38
2018-02-03T03:28:07.496Z,87.06
2018-02-03T03:29:07.359Z,88.95
2018-02-03T03:30:07.218Z,89.61
2018-02-03T03:31:07.077Z,89.79
2018-02-03T03:32:06.942Z,89.13
2018-02-03T03:33:06.806Z,87.72
2018-02-03T03:34:06.666Z,87.15
2018-02-03T03:35:06.534Z,87.15
2018-02-03T03:36:06.393Z,86.68
2018-02-03T03:37:06.258Z,86.59
2018-02-03T03:38:06.121Z,86.77
2018-02-03T03:39:05.978Z,87.62
2018-02-03T03:40:05.843Z,87.06
2018-02-03T03:41:05.704Z,87.44
2018-02-03T03:42:05.568Z,88.00
2018-02-03T03:43:05.431Z,88.47
2018-02-03T03:44:05.295Z,88.57
2018-02-03T03:45:05.155Z,88.10
2018-02-03T03:46:05.018Z,86.68
2018-02-03T03:47:04.880Z,87.06
2018-02-03T03:48:04.749Z,86.96
2018-02-03T03:49:04.614Z,87.15
2018-02-03T03:50:04.473Z,86.30
2018-02-03T03:51:04.335Z,86.21
2018-02-03T03:52:04.193Z,86.59
2018-02-03T03:53:04.058Z,86.96
2018-02-03T03:54:03.920Z,87.34
2018-02-03T03:55:03.781Z,87.91
2018-02-03T03:56:03.644Z,88.00
2018-02-03T03:57:03.506Z,87.53
2018-02-03T03:58:03.370Z,87.06
2018-02-03T03:59:03.234Z,87.53
2018-02-03T04:00:03.095Z,87.91
2018-02-03T04:01:02.959Z,88.57
2018-02-03T04:02:02.822Z,89.04
2018-02-03T04:03:02.685Z,89.89
2018-02-03T04:04:02.544Z,90.64
2018-02-03T04:05:02.411Z,91.11
2018-02-03T04:06:02.271Z,91.30
2018-02-03T04:07:02.134Z,92.05
2018-02-03T04:08:01.999Z,92.52
2018-02-03T04:09:01.861Z,92.33
2018-02-03T04:10:01.726Z,92.38
2018-02-03T04:11:01.584Z,92.10
2018-02-03T04:12:01.446Z,91.53
2018-02-03T04:13:01.312Z,90.83
2018-02-03T04:14:01.179Z,89.04
2018-02-03T04:15:01.036Z,88.10
2018-02-03T04:16:00.909Z,87.62
2018-02-03T04:17:00.761Z,87.72
2018-02-03T04:18:00.625Z,87.91
2018-02-03T04:19:00.487Z,88.85
2018-02-03T04:20:00.350Z,88.28
2018-02-03T04:21:00.211Z,88.47
2018-02-03T04:22:00.077Z,88.10
2018-02-03T04:22:59.939Z,88.19
2018-02-03T04:23:59.801Z,89.04
2018-02-03T04:24:59.664Z,89.42
2018-02-03T04:25:59.526Z,89.42
2018-02-03T04:26:59.389Z,88.99
2018-02-03T04:27:59.252Z,89.13
2018-02-03T04:28:59.113Z,89.27
2018-02-03T04:29:58.979Z,88.95
2018-02-03T04:30:58.840Z,90.03
2018-02-03T04:31:58.702Z,89.51
2018-02-03T04:32:58.566Z,88.95
2018-02-03T04:33:58.428Z,89.98
2018-02-03T04:34:58.290Z,90.64
2018-02-03T04:35:58.153Z,91.02
2018-02-03T04:36:58.016Z,90.92
2018-02-03T04:37:57.880Z,91.77
2018-02-03T04:38:57.741Z,92.33
2018-02-03T04:39:57.608Z,92.90
2018-02-03T04:40:57.467Z,92.52
2018-02-03T04:41:57.329Z,92.10
2018-02-03T04:42:57.191Z,90.45
2018-02-03T04:43:57.054Z,89.89
2018-02-03T04:44:56.916Z,89.84
2018-02-03T04:45:56.782Z,90.08
2018-02-03T04:46:56.644Z,89.70
2018-02-03T04:47:56.506Z,89.93
2018-02-03T04:48:56.368Z,90.03
2018-02-03T04:49:56.234Z,89.56
2018-02-03T04:50:56.093Z,89.65
2018-02-03T04:51:55.959Z,89.74
2018-02-03T04:52:55.820Z,89.65
2018-02-03T04:53:55.693Z,88.89
2018-02-03T04:54:55.548Z,89.56
2018-02-03T04:55:55.408Z,89.74
2018-02-03T04:56:55.270Z,90.12
2018-02-03T04:57:55.153Z,90.03
2018-02-03T04:58:55.002Z,90.31
2018-02-03T04:59:54.862Z,90.03
2018-02-03T05:00:54.726Z,90.12
2018-02-03T05:01:54.592Z,90.22
2018-02-03T05:02:54.450Z,90.41
2018-02-03T05:03:54.313Z,90.41
2018-02-03T05:04:54.175Z,90.59
2018-02-03T05:05:54.042Z,90.59
2018-02-03T05:06:53.904Z,90.50
2018-02-03T05:07:53.770Z,90.97
2018-02-03T05:08:53.631Z,90.50
2018-02-03T05:09:53.497Z,90.50
2018-02-03T05:10:53.356Z,90.03
2018-02-03T05:11:53.232Z,90.31
2018-02-03T05:12:53.080Z,90.12
2018-02-03T05:13:52.944Z,89.89
2018-02-03T05:14:52.805Z,90.22
2018-02-03T05:15:52.671Z,90.50
2018-02-03T05:16:52.535Z,90.88
2018-02-03T05:17:52.396Z,90.83
2018-02-03T05:18:52.260Z,91.39
2018-02-03T05:19:52.123Z,92.10
2018-02-03T05:20:51.985Z,91.86
2018-02-03T05:21:51.849Z,92.38
2018-02-03T05:22:51.712Z,92.19
2018-02-03T05:23:51.575Z,92.95
2018-02-03T05:24:51.443Z,92.85
2018-02-03T05:25:51.304Z,92.85
2018-02-03T05:26:51.162Z,92.95
2018-02-03T05:27:51.027Z,92.00
2018-02-03T05:28:50.888Z,91.82
2018-02-03T05:29:50.751Z,91.82
2018-02-03T05:30:50.616Z,91.63
2018-02-03T05:31:50.477Z,91.91
2018-02-03T05:32:50.340Z,91.53
2018-02-03T05:33:50.204Z,91.53
2018-02-03T05:34:50.067Z,91.16
2018-02-03T05:35:49.928Z,91.20
2018-02-03T05:36:49.794Z,91.67
2018-02-03T05:37:49.656Z,91.77
2018-02-03T05:38:49.520Z,92.19
2018-02-03T05:39:49.383Z,91.49
2018-02-03T05:40:49.244Z,91.77
2018-02-03T05:41:49.110Z,92.14
2018-02-03T05:42:48.972Z,92.24
2018-02-03T05:43:48.835Z,92.19
2018-02-03T05:44:48.700Z,92.52
2018-02-03T05:45:48.562Z,92.10
2018-02-03T05:46:48.423Z,91.82
2018-02-03T05:47:48.285Z,91.91
2018-02-03T05:48:48.148Z,91.25
2018-02-03T05:49:48.012Z,91.53
2018-02-03T05:50:47.874Z,90.88
2018-02-03T05:51:47.735Z,91.44
2018-02-03T05:52:47.599Z,91.82
2018-02-03T05:53:47.463Z,92.33
2018-02-03T05:54:47.324Z,92.95
2018-02-03T05:55:47.189Z,92.85
2018-02-03T05:56:47.050Z,92.95
2018-02-03T05:57:46.914Z,92.19
2018-02-03T05:58:46.777Z,91.82
2018-02-03T05:59:46.641Z,90.69
2018-02-03T06:00:46.503Z,90.50
2018-02-03T06:01:46.365Z,89.74
2018-02-03T06:02:46.229Z,89.84
2018-02-03T06:03:46.089Z,90.03
2018-02-03T06:04:45.954Z,90.12
2018-02-03T06:05:45.817Z,91.06
2018-02-03T06:06:45.679Z,91.16
2018-02-03T06:07:45.544Z,90.78
2018-02-03T06:08:45.405Z,90.88
2018-02-03T06:09:45.271Z,91.44
2018-02-03T06:10:45.134Z,90.88
2018-02-03T06:11:44.996Z,91.06
2018-02-03T06:12:44.861Z,91.72
2018-02-03T06:13:44.724Z,90.78
2018-02-03T06:14:44.590Z,90.50
2018-02-03T06:15:44.452Z,89.93
2018-02-03T06:16:44.311Z,89.56
2018-02-03T06:17:44.175Z,89.65
2018-02-03T06:18:44.041Z,89.27
2018-02-03T06:19:43.903Z,89.08
2018-02-03T06:20:43.768Z,88.99
2018-02-03T06:21:43.628Z,90.03
2018-02-03T06:22:43.492Z,90.03
2018-02-03T06:23:43.366Z,88.99
2018-02-03T06:24:43.223Z,89.74
2018-02-03T06:25:43.086Z,90.03
2018-02-03T06:26:42.946Z,90.22
2018-02-03T06:27:42.811Z,90.22
2018-02-03T06:28:42.673Z,88.42
2018-02-03T06:29:42.538Z,87.19
2018-02-03T06:30:42.397Z,86.63
2018-02-03T06:31:42.263Z,86.91
2018-02-03T06:32:42.127Z,86.25
2018-02-03T06:33:41.989Z,85.88
2018-02-03T06:34:41.854Z,85.50
2018-02-03T06:35:41.717Z,85.50
2018-02-03T06:36:41.622Z,85.69
2018-02-03T06:37:41.442Z,85.78
2018-02-03T06:38:41.307Z,86.07
2018-02-03T06:39:41.173Z,85.60
2018-02-03T06:40:41.035Z,85.78
2018-02-03T06:41:40.898Z,85.69
2018-02-03T06:42:40.759Z,85.50
2018-02-03T06:43:40.623Z,85.78
2018-02-03T06:44:40.486Z,86.35
2018-02-03T06:45:40.351Z,86.63
2018-02-03T06:46:40.213Z,86.82
2018-02-03T06:47:40.077Z,87.01
2018-02-03T06:48:39.941Z,86.63
2018-02-03T06:49:39.811Z,86.25
2018-02-03T06:50:39.670Z,86.16
2018-02-03T06:51:39.532Z,87.19
2018-02-03T06:52:39.396Z,87.10
2018-02-03T06:53:39.264Z,87.86
2018-02-03T06:54:39.124Z,87.86
2018-02-03T06:55:39.016Z,88.71
2018-02-03T06:56:38.852Z,89.08
2018-02-03T06:57:38.716Z,89.08
2018-02-03T06:58:38.581Z,89.46
2018-02-03T06:59:38.442Z,90.03
2018-02-03T07:00:38.308Z,90.41
2018-02-03T07:01:38.172Z,90.78
2018-02-03T07:02:38.034Z,89.74
2018-02-03T07:03:37.952Z,88.80
2018-02-03T07:04:37.763Z,88.99
2018-02-03T07:05:37.633Z,89.46
2018-02-03T07:06:37.488Z,89.27
2018-02-03T07:07:37.353Z,88.89
2018-02-03T07:08:37.215Z,89.46
2018-02-03T07:09:37.080Z,88.80
2018-02-03T07:10:36.946Z,89.56
2018-02-03T07:11:36.829Z,89.08
2018-02-03T07:12:36.673Z,89.27
2018-02-03T07:13:36.542Z,88.89
2018-02-03T07:14:36.413Z,89.18
2018-02-03T07:15:36.265Z,90.03
2018-02-03T07:16:36.125Z,89.93
2018-02-03T07:17:35.989Z,89.27
2018-02-03T07:18:35.856Z,89.08
2018-02-03T07:19:35.717Z,88.99
2018-02-03T07:20:35.580Z,89.08
2018-02-03T07:21:35.448Z,89.18
2018-02-03T07:22:35.305Z,88.89
2018-02-03T07:23:35.178Z,88.71
2018-02-03T07:24:35.064Z,89.08
2018-02-03T07:25:34.897Z,89.46
2018-02-03T07:26:34.795Z,88.99
2018-02-03T07:27:34.670Z,89.08
2018-02-03T07:28:34.491Z,89.08
2018-02-03T07:29:34.353Z,88.89
2018-02-03T07:30:34.215Z,88.23
2018-02-03T07:31:34.078Z,88.23
2018-02-03T07:32:33.948Z,88.71
2018-02-03T07:33:33.812Z,88.99
2018-02-03T07:34:33.864Z,89.18
2018-02-03T07:35:33.538Z,89.56
2018-02-03T07:36:33.398Z,90.22
2018-02-03T07:37:33.264Z,90.59
2018-02-03T07:38:33.129Z,90.78
2018-02-03T07:39:33.001Z,90.50
2018-02-03T07:40:32.862Z,90.88
2018-02-03T07:41:32.716Z,90.41
2018-02-03T07:42:32.584Z,90.59
2018-02-03T07:43:32.471Z,90.97
2018-02-03T07:44:32.314Z,91.35
2018-02-03T07:45:32.175Z,91.16
2018-02-03T07:46:32.036Z,90.50
2018-02-03T07:47:31.899Z,90.03
2018-02-03T07:48:31.765Z,89.84
2018-02-03T07:49:31.626Z,89.93
2018-02-03T07:50:31.491Z,88.99
2018-02-03T07:51:31.355Z,88.71
2018-02-03T07:52:31.219Z,88.33
2018-02-03T07:53:31.154Z,87.86
2018-02-03T07:54:30.946Z,88.52
2018-02-03T07:55:30.810Z,88.52
2018-02-03T07:56:30.676Z,89.08
2018-02-03T07:57:30.537Z,89.74
2018-02-03T07:58:30.399Z,89.27
2018-02-03T07:59:30.262Z,89.08
2018-02-03T08:00:30.129Z,88.52
2018-02-03T08:01:29.990Z,89.18
2018-02-03T08:02:29.854Z,89.74
2018-02-03T08:03:29.721Z,90.41
2018-02-03T08:04:29.584Z,90.59
2018-02-03T08:05:29.447Z,91.06
2018-02-03T08:06:29.312Z,91.16
2018-02-03T08:07:29.175Z,91.53
2018-02-03T08:08:29.039Z,91.91
2018-02-03T08:09:28.904Z,91.44
2018-02-03T08:10:28.769Z,91.72
2018-02-03T08:11:28.635Z,90.88
2018-02-03T08:12:28.493Z,91.16
2018-02-03T08:13:28.360Z,90.88
2018-02-03T08:14:28.222Z,91.16
2018-02-03T08:15:28.120Z,91.16
2018-02-03T08:16:27.954Z,91.16
2018-02-03T08:17:27.867Z,90.78
2018-02-03T08:18:27.679Z,90.03
2018-02-03T08:19:27.545Z,87.01
2018-02-03T08:20:27.442Z,86.07
2018-02-03T08:21:27.276Z,86.82
2018-02-03T08:22:27.138Z,87.86
2018-02-03T08:23:27.063Z,88.42
2018-02-03T08:24:26.866Z,88.89
2018-02-03T08:25:26.733Z,89.08
2018-02-03T08:26:26.594Z,89.08
2018-02-03T08:27:26.460Z,88.14
2018-02-03T08:28:26.323Z,87.86
2018-02-03T08:29:26.187Z,87.38
2018-02-03T08:30:26.051Z,87.38
2018-02-03T08:31:25.919Z,87.48
2018-02-03T08:32:25.835Z,86.91
2018-02-03T08:33:25.645Z,86.72
2018-02-03T08:34:25.514Z,87.38
2018-02-03T08:35:25.373Z,86.72
2018-02-03T08:36:25.238Z,87.01
2018-02-03T08:37:25.103Z,86.72
2018-02-03T08:38:24.965Z,86.44
2018-02-03T08:39:24.828Z,86.58
2018-02-03T08:40:24.750Z,86.35
2018-02-03T08:41:24.559Z,86.49
2018-02-03T08:42:24.421Z,85.92
2018-02-03T08:43:24.292Z,85.92
2018-02-03T08:44:24.152Z,86.21
2018-02-03T08:45:24.022Z,85.07
2018-02-03T08:46:23.883Z,85.26
2018-02-03T08:47:23.748Z,83.56
2018-02-03T08:48:23.611Z,83.37
2018-02-03T08:49:23.475Z,82.62
2018-02-03T08:50:23.343Z,81.96
2018-02-03T08:51:23.205Z,81.96
2018-02-03T08:52:23.071Z,82.58
2018-02-03T08:53:22.937Z,83.75
2018-02-03T08:54:22.803Z,84.13
2018-02-03T08:55:22.667Z,84.98
2018-02-03T08:56:22.533Z,85.17
2018-02-03T08:57:22.399Z,85.73
2018-02-03T08:58:22.259Z,85.73
2018-02-03T08:59:22.126Z,85.36
2018-02-03T09:00:21.992Z,85.07
2018-02-03T09:01:21.857Z,85.07
2018-02-03T09:02:21.720Z,84.79
2018-02-03T09:03:21.584Z,85.26
2018-02-03T09:04:21.448Z,84.69
2018-02-03T09:05:21.315Z,84.69
2018-02-03T09:06:21.179Z,85.17
2018-02-03T09:07:21.045Z,85.45
2018-02-03T09:08:20.909Z,85.73
2018-02-03T09:09:20.779Z,84.88
2018-02-03T09:10:20.639Z,85.17
2018-02-03T09:11:20.504Z,84.32
2018-02-03T09:12:20.402Z,84.79
2018-02-03T09:13:20.236Z,84.32
2018-02-03T09:14:20.099Z,84.60
2018-02-03T09:15:20.030Z,84.32
2018-02-03T09:16:19.827Z,84.88
2018-02-03T09:17:19.693Z,84.60
2018-02-03T09:18:19.558Z,85.45
2018-02-03T09:19:19.423Z,86.30
2018-02-03T09:20:19.287Z,86.11
2018-02-03T09:21:19.152Z,84.98
2018-02-03T09:22:19.015Z,85.54
2018-02-03T09:23:18.892Z,86.21
2018-02-03T09:24:18.741Z,86.02
2018-02-03T09:25:18.609Z,85.45
2018-02-03T09:26:18.531Z,85.07
2018-02-03T09:27:18.344Z,85.17
2018-02-03T09:28:18.205Z,85.17
2018-02-03T09:29:18.125Z,85.54
2018-02-03T09:30:17.931Z,85.64
2018-02-03T09:31:17.797Z,85.26
2018-02-03T09:32:17.662Z,84.88
2018-02-03T09:33:17.529Z,84.69
2018-02-03T09:34:17.789Z,85.17
2018-02-03T09:35:17.260Z,85.17
2018-02-03T09:36:17.121Z,85.17
2018-02-03T09:37:16.992Z,85.07
2018-02-03T09:38:16.855Z,84.51
2018-02-03T09:39:16.714Z,83.84
2018-02-03T09:40:16.579Z,83.47
2018-02-03T09:41:16.447Z,83.65
2018-02-03T09:42:16.310Z,83.47
2018-02-03T09:43:16.177Z,84.60
2018-02-03T09:44:16.039Z,84.98
2018-02-03T09:45:15.908Z,85.17
2018-02-03T09:46:15.771Z,85.17
2018-02-03T09:47:15.641Z,84.88
2018-02-03T09:48:15.500Z,85.17
2018-02-03T09:49:15.366Z,84.13
2018-02-03T09:50:15.239Z,83.47
2018-02-03T09:51:15.099Z,83.75
2018-02-03T09:52:14.964Z,83.65
2018-02-03T09:53:14.829Z,84.32
2018-02-03T09:54:14.708Z,84.98
2018-02-03T09:55:14.561Z,85.17
2018-02-03T09:56:14.427Z,85.07
2018-02-03T09:57:14.292Z,85.45
2018-02-03T09:58:14.155Z,85.17
2018-02-03T09:59:14.021Z,84.79
2018-02-03T10:00:13.889Z,84.79
2018-02-03T10:01:13.755Z,84.69
2018-02-03T10:02:13.617Z,84.13
2018-02-03T10:03:13.482Z,84.32
2018-02-03T10:04:13.351Z,85.17
2018-02-03T10:05:13.216Z,86.21
2018-02-03T10:06:13.088Z,86.77
2018-02-03T10:07:12.945Z,86.68
2018-02-03T10:08:12.813Z,87.15
2018-02-03T10:09:12.679Z,86.87
2018-02-03T10:10:12.550Z,87.34
2018-02-03T10:11:12.409Z,87.71
2018-02-03T10:12:12.275Z,87.34
2018-02-03T10:13:12.141Z,87.15
2018-02-03T10:14:12.012Z,86.87
2018-02-03T10:15:11.873Z,87.99
2018-02-03T10:16:11.739Z,87.90
2018-02-03T10:17:11.602Z,87.71
2018-02-03T10:18:11.467Z,87.15
2018-02-03T10:19:11.332Z,87.24
2018-02-03T10:20:11.202Z,88.09
2018-02-03T10:21:11.065Z,87.99
2018-02-03T10:22:10.931Z,87.99
2018-02-03T10:23:10.799Z,87.24
2018-02-03T10:24:10.665Z,86.87
2018-02-03T10:25:10.532Z,86.87
2018-02-03T10:26:10.398Z,86.77
2018-02-03T10:27:10.260Z,86.87
2018-02-03T10:28:10.121Z,86.30
2018-02-03T10:29:09.991Z,86.40
2018-02-03T10:30:09.853Z,86.11
2018-02-03T10:31:09.718Z,85.17
2018-02-03T10:32:09.591Z,85.07
2018-02-03T10:33:09.524Z,85.54
2018-02-03T10:34:09.315Z,84.88
2018-02-03T10:35:09.181Z,85.30
2018-02-03T10:36:09.797Z,85.30
2018-02-03T10:37:08.933Z,85.02
2018-02-03T10:38:08.780Z,85.21
2018-02-03T10:39:08.646Z,85.21
2018-02-03T10:40:08.527Z,84.45
2018-02-03T10:41:08.377Z,83.89
2018-02-03T10:42:08.243Z,84.45
2018-02-03T10:43:08.108Z,85.21
2018-02-03T10:44:07.978Z,84.92
2018-02-03T10:45:07.842Z,85.40
2018-02-03T10:46:07.705Z,85.11
2018-02-03T10:47:07.586Z,85.21
2018-02-03T10:48:07.438Z,85.02
2018-02-03T10:49:07.305Z,84.92
2018-02-03T10:50:07.169Z,85.02
2018-02-03T10:51:07.037Z,85.21
2018-02-03T10:52:06.902Z,84.27
2018-02-03T10:53:06.778Z,84.55
2018-02-03T10:54:06.635Z,84.55
2018-02-03T10:55:06.501Z,83.98
2018-02-03T10:56:06.371Z,84.45
2018-02-03T10:57:06.233Z,84.64
2018-02-03T10:58:06.099Z,85.02
2018-02-03T10:59:05.964Z,85.96
2018-02-03T11:00:05.830Z,85.77
2018-02-03T11:01:05.699Z,85.96
2018-02-03T11:02:05.562Z,85.30
2018-02-03T11:03:05.659Z,85.21
2018-02-03T11:04:05.298Z,85.77
2018-02-03T11:05:05.161Z,85.59
2018-02-03T11:06:05.031Z,85.59
2018-02-03T11:07:04.892Z,86.15
2018-02-03T11:08:04.758Z,86.34
2018-02-03T11:09:04.623Z,85.30
2018-02-03T11:10:04.551Z,85.11
2018-02-03T11:11:04.355Z,84.92
2018-02-03T11:12:04.229Z,85.30
2018-02-03T11:13:04.091Z,84.27
2018-02-03T11:14:03.955Z,84.08
2018-02-03T11:15:03.826Z,83.70
2018-02-03T11:16:03.830Z,84.45
2018-02-03T11:17:03.554Z,84.17
2018-02-03T11:18:03.421Z,83.80
2018-02-03T11:19:03.296Z,83.61
2018-02-03T11:20:03.156Z,83.42
2018-02-03T11:21:03.020Z,84.17
2018-02-03T11:22:02.883Z,84.83
2018-02-03T11:23:02.749Z,84.74
2018-02-03T11:24:02.652Z,83.51
2018-02-03T11:25:02.489Z,83.61
2018-02-03T11:26:02.347Z,82.76
2018-02-03T11:27:02.219Z,82.95
2018-02-03T11:28:02.082Z,82.66
2018-02-03T11:29:01.947Z,83.14
2018-02-03T11:30:01.820Z,84.74
2018-02-03T11:31:01.682Z,84.92
2018-02-03T11:32:01.550Z,85.02
2018-02-03T11:33:01.413Z,84.92
2018-02-03T11:34:01.281Z,85.21
2018-02-03T11:35:01.146Z,85.30
2018-02-03T11:36:01.168Z,84.83
2018-02-03T11:37:00.881Z,84.36
2018-02-03T11:38:00.743Z,84.45
2018-02-03T11:39:00.614Z,84.08
2018-02-03T11:40:00.483Z,83.70
2018-02-03T11:41:00.345Z,84.08
2018-02-03T11:42:00.212Z,84.17
2018-02-03T11:43:00.075Z,83.70
2018-02-03T11:43:59.942Z,83.33
2018-02-03T11:44:59.807Z,84.27
2018-02-03T11:45:59.678Z,84.55
2018-02-03T11:46:59.544Z,84.45
2018-02-03T11:47:59.407Z,84.64
2018-02-03T11:48:59.274Z,85.21
2018-02-03T11:49:59.152Z,85.21
2018-02-03T11:50:59.012Z,85.21
2018-02-03T11:51:58.883Z,83.80
2018-02-03T11:52:58.864Z,83.61
2018-02-03T11:53:58.607Z,83.70
2018-02-03T11:54:58.471Z,83.70
2018-02-03T11:55:58.343Z,82.85
2018-02-03T11:56:58.207Z,82.66
2018-02-03T11:57:58.074Z,81.53
2018-02-03T11:58:57.940Z,79.83
2018-02-03T11:59:57.807Z,79.68
2018-02-03T12:00:57.672Z,80.44
2018-02-03T12:01:57.540Z,80.58
2018-02-03T12:02:57.408Z,81.24
2018-02-03T12:03:57.276Z,81.53
2018-02-03T12:04:57.279Z,82.57
2018-02-03T12:05:57.035Z,82.57
2018-02-03T12:06:56.888Z,82.47
2018-02-03T12:07:56.744Z,83.04
2018-02-03T12:08:56.609Z,82.38
2018-02-03T12:09:56.474Z,82.95
2018-02-03T12:10:56.342Z,82.85
2018-02-03T12:11:56.210Z,83.14
2018-02-03T12:12:56.074Z,82.85
2018-02-03T12:13:55.937Z,82.66
2018-02-03T12:14:55.805Z,83.61
2018-02-03T12:15:55.674Z,83.33
2018-02-03T12:16:55.540Z,83.70
2018-02-03T12:17:55.404Z,83.33
2018-02-03T12:18:55.318Z,83.51
2018-02-03T12:19:55.139Z,82.95
2018-02-03T12:20:55.006Z,82.95
2018-02-03T12:21:54.871Z,82.10
2018-02-03T12:22:54.738Z,82.32
2018-02-03T12:23:54.606Z,81.29
2018-02-03T12:24:54.486Z,80.53
2018-02-03T12:25:54.339Z,80.72
2018-02-03T12:26:54.204Z,80.72
2018-02-03T12:27:54.074Z,81.01
2018-02-03T12:28:54.014Z,81.01
2018-02-03T12:29:53.812Z,81.48
2018-02-03T12:30:53.697Z,80.53
2018-02-03T12:31:53.569Z,80.82
2018-02-03T12:32:53.506Z,81.20
2018-02-03T12:33:53.404Z,81.29
2018-02-03T12:34:53.379Z,80.91
2018-02-03T12:35:53.015Z,80.63
2018-02-03T12:36:52.883Z,81.57
2018-02-03T12:37:52.762Z,82.42
2018-02-03T12:38:52.632Z,82.80
2018-02-03T12:39:52.482Z,81.57
2018-02-03T12:40:52.385Z,81.48
2018-02-03T12:41:52.215Z,80.06
2018-02-03T12:42:52.094Z,80.15
2018-02-03T12:43:51.992Z,79.87
2018-02-03T12:44:51.895Z,80.82
2018-02-03T12:45:51.679Z,80.72
2018-02-03T12:46:51.556Z,81.20
2018-02-03T12:47:51.418Z,80.63
2018-02-03T12:48:51.331Z,80.15
2018-02-03T12:49:51.222Z,79.68
2018-02-03T12:50:51.039Z,78.27